createdAt,value
2022-10-26T00:03:01.237Z,2.13
2022-10-26T00:08:04.940Z,1.80
2022-10-26T00:13:13.471Z,1.55
2022-10-26T00:18:16.681Z,1.27
2022-10-26T00:23:20.028Z,1.40
2022-10-26T00:28:24.783Z,1.70
2022-10-26T00:33:28.109Z,1.33
2022-10-26T00:38:31.749Z,2.10
2022-10-26T00:43:38.763Z,1.40
2022-10-26T00:48:45.728Z,1.50
2022-10-26T00:53:49.367Z,1.65
2022-10-26T00:58:54.455Z,1.10
2022-10-26T01:03:58.672Z,1.30
2022-10-26T01:09:02.350Z,1.00
2022-10-26T01:14:10.856Z,1.38
2022-10-26T01:19:51.930Z,1.30
2022-10-26T01:25:13.661Z,1.15
2022-10-26T01:30:21.208Z,1.20
2022-10-26T01:35:30.603Z,1.00
2022-10-26T01:40:39.041Z,1.02
2022-10-26T01:45:47.285Z,1.40
2022-10-26T01:50:53.748Z,1.00
2022-10-26T01:55:57.764Z,1.02
2022-10-26T02:01:11.138Z,1.15
2022-10-26T02:06:23.968Z,0.98
2022-10-26T02:11:38.521Z,1.05
2022-10-26T02:16:53.478Z,1.23
2022-10-26T02:22:03.699Z,0.90
2022-10-26T02:27:09.861Z,1.00
2022-10-26T02:32:15.627Z,0.95
2022-10-26T02:37:21.591Z,1.05
2022-10-26T02:42:28.079Z,1.52
2022-10-26T02:47:33.582Z,1.17
2022-10-26T02:52:45.353Z,1.10
2022-10-26T02:57:53.456Z,1.20
2022-10-26T03:03:02.888Z,1.10
2022-10-26T03:08:06.518Z,1.05
2022-10-26T03:13:10.127Z,1.10
2022-10-26T03:18:14.767Z,1.63
2022-10-26T03:23:18.066Z,1.30
2022-10-26T03:28:21.293Z,1.08
2022-10-26T03:33:27.861Z,0.90
2022-10-26T03:38:31.353Z,0.95
2022-10-26T03:43:34.550Z,1.13
2022-10-26T03:48:39.188Z,1.15
2022-10-26T03:53:42.436Z,1.58
2022-10-26T03:58:45.641Z,1.30
2022-10-26T04:03:50.591Z,1.50
2022-10-26T04:08:58.289Z,1.10
2022-10-26T04:14:01.741Z,1.17
2022-10-26T04:19:06.344Z,1.23
2022-10-26T04:24:11.093Z,1.17
2022-10-26T04:29:14.369Z,1.20
2022-10-26T04:34:18.944Z,1.20
2022-10-26T04:39:22.150Z,1.60
2022-10-26T04:44:25.592Z,1.40
2022-10-26T04:49:30.218Z,1.20
2022-10-26T04:54:33.571Z,0.95
2022-10-26T04:59:36.926Z,1.25
2022-10-26T05:04:41.564Z,1.33
2022-10-26T05:09:45.161Z,0.80
2022-10-26T05:14:48.597Z,1.17
2022-10-26T05:19:55.738Z,0.98
2022-10-26T05:24:58.979Z,1.27
2022-10-26T05:30:02.263Z,1.40
2022-10-26T05:35:07.862Z,1.85
2022-10-26T05:40:12.863Z,2.33
2022-10-26T05:45:18.201Z,3.10
2022-10-26T05:50:22.835Z,2.65
2022-10-26T05:55:27.094Z,2.65
2022-10-26T06:00:31.481Z,3.30
2022-10-26T06:05:42.798Z,2.47
2022-10-26T06:10:46.676Z,2.72
2022-10-26T06:16:04.215Z,2.50
2022-10-26T06:21:26.599Z,3.25
2022-10-26T06:26:39.864Z,2.92
2022-10-26T06:31:43.764Z,1.88
2022-10-26T06:36:50.937Z,3.30
2022-10-26T06:41:54.818Z,3.30
2022-10-26T06:47:09.101Z,3.45
2022-10-26T06:52:21.797Z,3.90
2022-10-26T06:57:29.427Z,3.55
2022-10-26T07:02:32.798Z,3.13
2022-10-26T07:07:42.412Z,3.78
2022-10-26T07:12:46.021Z,3.78
2022-10-26T07:17:50.754Z,4.15
2022-10-26T07:22:56.902Z,3.38
2022-10-26T07:28:00.486Z,4.20
2022-10-26T07:33:04.984Z,4.25
2022-10-26T07:38:13.717Z,3.88
2022-10-26T07:43:17.183Z,4.05
2022-10-26T07:48:20.474Z,4.07
2022-10-26T07:53:27.835Z,3.85
2022-10-26T07:58:31.482Z,4.53
2022-10-26T08:03:34.833Z,4.35
2022-10-26T08:08:42.453Z,4.80
2022-10-26T08:13:48.421Z,4.72
2022-10-26T08:18:52.924Z,5.53
2022-10-26T08:23:57.865Z,5.13
2022-10-26T08:29:01.210Z,4.88
2022-10-26T08:34:04.849Z,5.40
2022-10-26T08:39:09.555Z,5.38
2022-10-26T08:44:24.029Z,5.40
2022-10-26T08:49:31.186Z,4.13
2022-10-26T08:54:41.092Z,5.60
2022-10-26T08:59:53.106Z,4.70
2022-10-26T09:05:00.277Z,5.90
2022-10-26T09:10:14.246Z,4.85
2022-10-26T09:15:27.803Z,6.55
2022-10-26T09:20:49.735Z,6.13
2022-10-26T09:26:00.483Z,5.68
2022-10-26T09:31:05.163Z,3.67
2022-10-26T09:36:15.988Z,7.03
2022-10-26T09:41:30.990Z,6.78
2022-10-26T09:46:45.949Z,6.95
2022-10-26T09:51:51.159Z,6.53
2022-10-26T09:56:58.955Z,7.30
2022-10-26T10:02:02.524Z,8.13
2022-10-26T10:07:39.780Z,8.52
2022-10-26T10:12:44.971Z,8.10
2022-10-26T10:17:53.310Z,8.38
2022-10-26T10:22:58.585Z,8.15
2022-10-26T10:28:04.509Z,7.80
2022-10-26T10:33:11.807Z,7.43
2022-10-26T10:38:18.500Z,6.90
2022-10-26T10:43:23.994Z,7.47
2022-10-26T10:48:29.522Z,8.10
2022-10-26T10:53:38.101Z,7.07
2022-10-26T10:58:48.330Z,8.27
2022-10-26T11:04:03.801Z,8.18
2022-10-26T11:09:11.014Z,6.97
2022-10-26T11:14:18.879Z,9.52
2022-10-26T11:19:25.899Z,9.75
2022-10-26T11:24:36.818Z,8.45
2022-10-26T11:29:49.138Z,8.27
2022-10-26T11:34:59.501Z,9.38
2022-10-26T11:40:06.276Z,9.25
2022-10-26T11:45:19.509Z,8.75
2022-10-26T11:50:26.692Z,9.32
2022-10-26T11:55:31.109Z,9.65
2022-10-26T12:00:47.763Z,9.40
2022-10-26T12:05:53.160Z,10.07
2022-10-26T12:16:22.028Z,11.00
2022-10-26T12:21:29.389Z,8.45
2022-10-26T12:26:55.147Z,9.10
2022-10-26T12:32:00.302Z,8.15
2022-10-26T12:37:24.688Z,8.30
2022-10-26T12:42:31.396Z,7.57
2022-10-26T12:48:10.796Z,7.28
2022-10-26T12:53:21.870Z,7.45
2022-10-26T12:59:07.645Z,7.55
2022-10-26T13:04:42.483Z,6.88
2022-10-26T13:09:49.120Z,7.35
2022-10-26T13:15:00.300Z,6.55
2022-10-26T13:20:08.386Z,7.93
2022-10-26T13:25:23.350Z,7.25
2022-10-26T13:30:48.956Z,7.18
2022-10-26T13:35:59.539Z,7.80
2022-10-26T13:41:23.029Z,6.70
2022-10-26T13:46:31.958Z,7.13
2022-10-26T13:51:44.241Z,6.18
2022-10-26T13:56:59.086Z,6.88
2022-10-26T14:02:19.526Z,6.55
2022-10-26T14:07:26.964Z,7.28
2022-10-26T14:12:30.768Z,6.80
2022-10-26T14:17:34.578Z,7.07
2022-10-26T14:22:39.497Z,6.50
2022-10-26T14:27:43.376Z,7.20
2022-10-26T14:32:52.816Z,6.38
2022-10-26T14:38:01.423Z,7.28
2022-10-26T14:43:07.499Z,6.90
2022-10-26T14:48:23.466Z,7.50
2022-10-26T14:53:34.127Z,6.80
2022-10-26T14:58:37.828Z,6.95
2022-10-26T15:03:41.874Z,7.50
2022-10-26T15:08:56.465Z,8.25
2022-10-26T15:14:01.052Z,8.13
2022-10-26T15:19:11.127Z,7.50
2022-10-26T15:24:30.215Z,8.48
2022-10-26T15:29:44.493Z,8.27
2022-10-26T15:35:06.537Z,9.20
2022-10-26T15:40:12.581Z,9.23
2022-10-26T15:45:19.676Z,9.13
2022-10-26T15:50:24.730Z,10.45
2022-10-26T15:55:30.164Z,9.88
2022-10-26T16:00:33.722Z,10.38
2022-10-26T16:05:38.550Z,7.68
2022-10-26T16:10:44.421Z,9.68
2022-10-26T16:15:48.034Z,9.32
2022-10-26T16:20:51.671Z,8.82
2022-10-26T16:25:56.760Z,9.45
2022-10-26T16:31:00.916Z,8.48
2022-10-26T16:36:06.150Z,8.77
2022-10-26T16:41:14.031Z,8.55
2022-10-26T16:46:19.743Z,8.13
2022-10-26T16:51:24.727Z,5.15
2022-10-26T16:56:32.060Z,6.40
2022-10-26T17:01:36.697Z,6.30
2022-10-26T17:06:41.828Z,6.75
2022-10-26T17:11:52.365Z,6.95
2022-10-26T17:16:57.322Z,7.15
2022-10-26T17:22:03.808Z,7.05
2022-10-26T17:27:12.431Z,6.82
2022-10-26T17:32:17.321Z,6.28
2022-10-26T17:37:22.098Z,6.20
2022-10-26T17:42:29.764Z,6.38
2022-10-26T17:47:37.891Z,6.80
2022-10-26T17:52:43.019Z,9.65
2022-10-26T17:57:50.301Z,9.27
2022-10-26T18:02:56.176Z,9.30
2022-10-26T18:08:00.551Z,8.38
2022-10-26T18:13:08.686Z,8.23
2022-10-26T18:18:13.493Z,7.20
2022-10-26T18:23:18.605Z,10.88
2022-10-26T18:28:25.357Z,9.18
2022-10-26T18:33:30.296Z,7.90
2022-10-26T18:38:35.698Z,7.53
2022-10-26T18:43:44.872Z,7.50
2022-10-26T18:48:49.573Z,7.28
2022-10-26T18:53:55.108Z,7.90
2022-10-26T18:59:10.348Z,8.13
2022-10-26T19:04:15.234Z,7.97
2022-10-26T19:09:27.712Z,8.10
2022-10-26T19:14:34.597Z,7.85
2022-10-26T19:19:41.116Z,7.38
2022-10-26T19:24:49.369Z,6.43
2022-10-26T19:29:58.195Z,6.45
2022-10-26T19:35:04.412Z,6.75
2022-10-26T19:40:11.004Z,8.55
2022-10-26T19:45:18.192Z,8.07
2022-10-26T19:50:23.072Z,8.82
2022-10-26T19:55:27.428Z,8.73
2022-10-26T20:00:38.237Z,7.57
2022-10-26T20:05:44.015Z,7.93
2022-10-26T20:10:49.165Z,8.13
2022-10-26T20:15:56.215Z,7.45
2022-10-26T20:21:01.834Z,7.97
2022-10-26T20:26:07.702Z,7.95
2022-10-26T20:31:14.866Z,7.68
2022-10-26T20:36:19.763Z,8.30
2022-10-26T20:41:25.177Z,7.70
2022-10-26T20:46:33.963Z,8.27
2022-10-26T20:51:56.788Z,7.57
2022-10-26T20:57:14.366Z,7.05
2022-10-26T21:02:20.250Z,7.30
2022-10-26T21:07:23.773Z,6.82
2022-10-26T21:12:27.047Z,7.93
2022-10-26T21:17:34.755Z,6.30
2022-10-26T21:22:38.033Z,7.32
2022-10-26T21:27:41.346Z,7.45
2022-10-26T21:32:48.774Z,7.35
2022-10-26T21:37:52.327Z,6.72
2022-10-26T21:42:55.726Z,7.57
2022-10-26T21:48:00.301Z,6.70
2022-10-26T21:53:04.948Z,7.50
2022-10-26T21:58:08.297Z,7.47
2022-10-26T22:03:12.976Z,7.15
2022-10-26T22:08:16.246Z,6.40
2022-10-26T22:13:19.637Z,5.72
2022-10-26T22:18:24.309Z,6.40
2022-10-26T22:23:27.616Z,6.65
2022-10-26T22:28:32.902Z,6.45
2022-10-26T22:33:37.865Z,6.88
2022-10-26T22:38:41.914Z,8.02
2022-10-26T22:43:45.669Z,6.45
2022-10-26T22:48:54.976Z,6.43
2022-10-26T22:53:59.872Z,6.78
2022-10-26T22:59:07.103Z,6.55
2022-10-26T23:04:16.561Z,5.72
2022-10-26T23:09:19.941Z,6.82
2022-10-26T23:14:23.251Z,7.20
2022-10-26T23:19:27.895Z,7.65
2022-10-26T23:24:32.201Z,7.18
2022-10-26T23:29:35.707Z,7.35
2022-10-26T23:34:40.354Z,7.82
2022-10-26T23:39:43.736Z,7.15
2022-10-26T23:44:47.019Z,6.82
2022-10-26T23:49:51.779Z,7.50
2022-10-26T23:54:55.294Z,7.68
2022-10-26T23:59:58.601Z,7.10
